Todd, Pennsylvania
Current Conditions -  °F | °C
As of 3:53 AM on Wednesday 26 Nov 2014 (Local Time) from KAOO Reporting Station
Scattered Clouds Scattered Clouds  
Wind Chill: 33°   Ceiling: Unl
Heat Index: 33°   Visibility: 10mi
Dew Point: 27°   Wind: 3mph
Humidity: 78%   Direction: 60°ENE
Pressure: 30.12"   Gusts: NA
Location:  40.26°N, 78.08°W
Report Text: KAOO 260853Z AUTO 06003KT 10SM SCT120 01/M03 A3012 RMK AO2 PRESFR SLP208 T00061028 58017
Loading
Personal Weather Stations






























Interactive Weather Map New forecast layout! Learn more

10-Day Weather Forecast

Advertisements
Track Severe Weather on mobile